Pebble Beach, California
Current Conditions -  °F | °C
As of 3:54 PM on Wednesday 28 Jan 2015 (Local Time) from KMRY Reporting Station
Clear Clear  
Wind Chill: 61°   Ceiling: Unl
Heat Index: 61°   Visibility: 10mi
Dew Point: 49°   Wind: 7mph
Humidity: 64%   Direction: 290°WNW
Pressure: 30.15"   Gusts: NA
Location:  36.57°N, 121.95°W
Report Text: KMRY 282354Z 29006KT 10SM CLR 16/09 A3015 RMK AO2 SLP221 T01610094 10206 20139 55013
Loading
Personal Weather Stations






























Interactive Weather Map New forecast layout! Learn more

10-Day Weather Forecast

Advertisements
Track Severe Weather on mobile